PWSweather.com
Personal Weather Stations
Station Observations
KMAROCK
Pebble Beach, Rockport, MA 01966

Pebble BeachRockport, MA 01966

Lat: 42.63577271, Lon: -70.597377

Elevation: 20

Station Type: Davis Vantage Pro2

http://weather-rockport.keneli.org

High Low Average
Temperature 20.2°F-6.6°C 6.8°F-14.0°C 12.9°F-10.6°C
Dew Point 5.5°F-14.7°C -2.0°F-18.9°C 1.6°F-16.9°C
Winds 22.0 mph 35.4 kmh 4.0 mph 6.4 kmh 11.0 mph NW17.7 kmh NW
Wind Gusts 29.0 mph46.7 kmh 11.0 mph17.7 kmh 18.0 mph29.0 kmh
Humidity 74% 42% 59%
Pressure 30.38 in1028.8 mb 29.98 in1015.2 mb -
Precipitation 0.00 in0.0 mm - -
Hour Temp Dew Point Humidity Winds Wind Gusts Pressure Precip Precip Rate Daily Precip Total
12:05 AM 16.3°F-8.7°C 5.5°F-14.7°C 62% 8.0 mph NW12.9 kmh NW 20.0 mph32.2 kmh 29.98 in1015.2 mb 0.00 in0.0 mm 0.00 in/hr0.0 mm/hr 0.00 in0.0 mm
12:10 AM 16.1°F-8.8°C 5.4°F-14.8°C 62% 15.0 mph NW24.1 kmh NW 25.0 mph40.2 kmh 29.98 in1015.2 mb 0.00 in0.0 mm 0.00 in/hr0.0 mm/hr 0.00 in0.0 mm
12:15 AM 16.0°F-8.9°C 5.3°F-14.8°C 62% 11.0 mph NW17.7 kmh NW 20.0 mph32.2 kmh 29.98 in1015.2 mb 0.00 in0.0 mm 0.00 in/hr0.0 mm/hr 0.00 in0.0 mm
12:20 AM 15.8°F-9.0°C 4.7°F-15.2°C 61% 14.0 mph NW22.5 kmh NW 22.0 mph35.4 kmh 29.98 in1015.2 mb 0.00 in0.0 mm 0.00 in/hr0.0 mm/hr 0.00 in0.0 mm
12:25 AM 15.6°F-9.1°C 4.2°F-15.4°C 60% 13.0 mph NW20.9 kmh NW 24.0 mph38.6 kmh 29.98 in1015.2 mb 0.00 in0.0 mm 0.00 in/hr0.0 mm/hr 0.00 in0.0 mm
12:30 AM 15.4°F-9.2°C 3.6°F-15.8°C 59% 17.0 mph WNW27.4 kmh WNW 21.0 mph33.8 kmh 29.99 in1015.6 mb 0.00 in0.0 mm 0.00 in/hr0.0 mm/hr 0.00 in0.0 mm
12:35 AM 15.2°F-9.3°C 3.8°F-15.7°C 60% 13.0 mph WNW20.9 kmh WNW 26.0 mph41.8 kmh 29.99 in1015.6 mb 0.00 in0.0 mm 0.00 in/hr0.0 mm/hr 0.00 in0.0 mm
12:40 AM 15.0°F-9.4°C 3.6°F-15.8°C 60% 11.0 mph NW17.7 kmh NW 22.0 mph35.4 kmh 29.99 in1015.6 mb 0.00 in0.0 mm 0.00 in/hr0.0 mm/hr 0.00 in0.0 mm
12:45 AM 15.0°F-9.4°C 4.0°F-15.6°C 61% 7.0 mph WSW11.3 kmh WSW 18.0 mph29.0 kmh 29.99 in1015.6 mb 0.00 in0.0 mm 0.00 in/hr0.0 mm/hr 0.00 in0.0 mm
12:50 AM 14.9°F-9.5°C 3.9°F-15.6°C 61% 14.0 mph NW22.5 kmh NW 22.0 mph35.4 kmh 30.00 in1015.9 mb 0.00 in0.0 mm 0.00 in/hr0.0 mm/hr 0.00 in0.0 mm
12:55 AM 14.8°F-9.6°C 3.1°F-16.1°C 59% 12.0 mph WNW19.3 kmh WNW 20.0 mph32.2 kmh 30.00 in1015.9 mb 0.00 in0.0 mm 0.00 in/hr0.0 mm/hr 0.00 in0.0 mm
01:00 AM 14.6°F-9.7°C 2.5°F-16.4°C 58% 9.0 mph NW14.5 kmh NW 19.0 mph30.6 kmh 30.00 in1015.9 mb 0.00 in0.0 mm 0.00 in/hr0.0 mm/hr 0.00 in0.0 mm
01:05 AM 14.5°F-9.7°C 2.4°F-16.4°C 58% 16.0 mph WNW25.7 kmh WNW 25.0 mph40.2 kmh 30.01 in1016.3 mb 0.00 in0.0 mm 0.00 in/hr0.0 mm/hr 0.00 in0.0 mm
01:10 AM 14.4°F-9.8°C 2.3°F-16.5°C 58% 10.0 mph NW16.1 kmh NW 23.0 mph37.0 kmh 30.01 in1016.3 mb 0.00 in0.0 mm 0.00 in/hr0.0 mm/hr 0.00 in0.0 mm
01:15 AM 14.4°F-9.8°C 2.3°F-16.5°C 58% 7.0 mph NW11.3 kmh NW 23.0 mph37.0 kmh 30.01 in1016.3 mb 0.00 in0.0 mm 0.00 in/hr0.0 mm/hr 0.00 in0.0 mm
01:20 AM 14.4°F-9.8°C 2.3°F-16.5°C 58% 12.0 mph NW19.3 kmh NW 21.0 mph33.8 kmh 30.02 in1016.6 mb 0.00 in0.0 mm 0.00 in/hr0.0 mm/hr 0.00 in0.0 mm
01:25 AM 14.2°F-9.9°C 1.4°F-17.0°C 56% 14.0 mph NW22.5 kmh NW 25.0 mph40.2 kmh 30.02 in1016.6 mb 0.00 in0.0 mm 0.00 in/hr0.0 mm/hr 0.00 in0.0 mm
01:30 AM 14.0°F-10.0°C 1.2°F-17.1°C 56% 17.0 mph NW27.4 kmh NW 27.0 mph43.5 kmh 30.03 in1016.9 mb 0.00 in0.0 mm 0.00 in/hr0.0 mm/hr 0.00 in0.0 mm
01:35 AM 13.9°F-10.1°C 1.5°F-16.9°C 57% 11.0 mph NW17.7 kmh NW 19.0 mph30.6 kmh 30.03 in1016.9 mb 0.00 in0.0 mm 0.00 in/hr0.0 mm/hr 0.00 in0.0 mm
01:40 AM 13.7°F-10.2°C 2.0°F-16.7°C 59% 12.0 mph NW19.3 kmh NW 16.0 mph25.7 kmh 30.03 in1016.9 mb 0.00 in0.0 mm 0.00 in/hr0.0 mm/hr 0.00 in0.0 mm
01:45 AM 13.6°F-10.2°C 1.9°F-16.7°C 59% 13.0 mph NW20.9 kmh NW 20.0 mph32.2 kmh 30.03 in1016.9 mb 0.00 in0.0 mm 0.00 in/hr0.0 mm/hr 0.00 in0.0 mm
01:50 AM 13.4°F-10.3°C 2.1°F-16.6°C 60% 9.0 mph WSW14.5 kmh WSW 19.0 mph30.6 kmh 30.04 in1017.3 mb 0.00 in0.0 mm 0.00 in/hr0.0 mm/hr 0.00 in0.0 mm
01:55 AM 13.2°F-10.4°C 1.5°F-16.9°C 59% 11.0 mph NNW17.7 kmh NNW 22.0 mph35.4 kmh 30.04 in1017.3 mb 0.00 in0.0 mm 0.00 in/hr0.0 mm/hr 0.00 in0.0 mm
02:00 AM 12.9°F-10.6°C 0.9°F-17.3°C 58% 13.0 mph NW20.9 kmh NW 22.0 mph35.4 kmh 30.04 in1017.3 mb 0.00 in0.0 mm 0.00 in/hr0.0 mm/hr 0.00 in0.0 mm
02:05 AM 12.7°F-10.7°C 0.7°F-17.4°C 58% 7.0 mph WNW11.3 kmh WNW 19.0 mph30.6 kmh 30.04 in1017.3 mb 0.00 in0.0 mm 0.00 in/hr0.0 mm/hr 0.00 in0.0 mm
02:10 AM 12.5°F-10.8°C 0.9°F-17.3°C 59% 10.0 mph WNW16.1 kmh WNW 19.0 mph30.6 kmh 30.04 in1017.3 mb 0.00 in0.0 mm 0.00 in/hr0.0 mm/hr 0.00 in0.0 mm
02:15 AM 12.4°F-10.9°C 0.8°F-17.3°C 59% 11.0 mph NW17.7 kmh NW 22.0 mph35.4 kmh 30.04 in1017.3 mb 0.00 in0.0 mm 0.00 in/hr0.0 mm/hr 0.00 in0.0 mm
02:20 AM 12.2°F-11.0°C 1.0°F-17.2°C 60% 10.0 mph WNW16.1 kmh WNW 20.0 mph32.2 kmh 30.05 in1017.6 mb 0.00 in0.0 mm 0.00 in/hr0.0 mm/hr 0.00 in0.0 mm
02:25 AM 12.2°F-11.0°C 1.3°F-17.1°C 61% 18.0 mph WNW29.0 kmh WNW 18.0 mph29.0 kmh 30.05 in1017.6 mb 0.00 in0.0 mm 0.00 in/hr0.0 mm/hr 0.00 in0.0 mm
02:30 AM 12.1°F-11.1°C 0.9°F-17.3°C 60% 18.0 mph NNW29.0 kmh NNW 22.0 mph35.4 kmh 30.05 in1017.6 mb 0.00 in0.0 mm 0.00 in/hr0.0 mm/hr 0.00 in0.0 mm
02:35 AM 11.9°F-11.2°C 0.3°F-17.6°C 59% 13.0 mph NW20.9 kmh NW 24.0 mph38.6 kmh 30.05 in1017.6 mb 0.00 in0.0 mm 0.00 in/hr0.0 mm/hr 0.00 in0.0 mm
02:40 AM 11.7°F-11.3°C 0.1°F-17.7°C 59% 11.0 mph NNW17.7 kmh NNW 21.0 mph33.8 kmh 30.05 in1017.6 mb 0.00 in0.0 mm 0.00 in/hr0.0 mm/hr 0.00 in0.0 mm
02:45 AM 11.6°F-11.3°C 0.0°F-17.8°C 59% 16.0 mph NW25.7 kmh NW 21.0 mph33.8 kmh 30.05 in1017.6 mb 0.00 in0.0 mm 0.00 in/hr0.0 mm/hr 0.00 in0.0 mm
02:50 AM 11.5°F-11.4°C 0.6°F-17.4°C 61% 8.0 mph WSW12.9 kmh WSW 15.0 mph24.1 kmh 30.06 in1017.9 mb 0.00 in0.0 mm 0.00 in/hr0.0 mm/hr 0.00 in0.0 mm
02:55 AM 11.4°F-11.4°C 0.5°F-17.5°C 61% 6.0 mph NW9.7 kmh NW 21.0 mph33.8 kmh 30.06 in1017.9 mb 0.00 in0.0 mm 0.00 in/hr0.0 mm/hr 0.00 in0.0 mm
03:00 AM 11.3°F-11.5°C 0.1°F-17.7°C 60% 16.0 mph NNW25.7 kmh NNW 19.0 mph30.6 kmh 30.06 in1017.9 mb 0.00 in0.0 mm 0.00 in/hr0.0 mm/hr 0.00 in0.0 mm
03:05 AM 11.1°F-11.6°C -5537.2°C 59% 14.0 mph NW22.5 kmh NW 23.0 mph37.0 kmh 30.06 in1017.9 mb 0.00 in0.0 mm 0.00 in/hr0.0 mm/hr 0.00 in0.0 mm
03:10 AM 10.8°F-11.8°C -5537.2°C 58% 13.0 mph NNW20.9 kmh NNW 18.0 mph29.0 kmh 30.06 in1017.9 mb 0.00 in0.0 mm 0.00 in/hr0.0 mm/hr 0.00 in0.0 mm
03:15 AM 10.7°F-11.8°C -5537.2°C 58% 8.0 mph NW12.9 kmh NW 21.0 mph33.8 kmh 30.07 in1018.3 mb 0.00 in0.0 mm 0.00 in/hr0.0 mm/hr 0.00 in0.0 mm
03:20 AM 10.5°F-11.9°C -5537.2°C 58% 18.0 mph WNW29.0 kmh WNW 25.0 mph40.2 kmh 30.06 in1017.9 mb 0.00 in0.0 mm 0.00 in/hr0.0 mm/hr 0.00 in0.0 mm
03:25 AM 10.2°F-12.1°C -5537.2°C 58% 13.0 mph NW20.9 kmh NW 29.0 mph46.7 kmh 30.07 in1018.3 mb 0.00 in0.0 mm 0.00 in/hr0.0 mm/hr 0.00 in0.0 mm
03:30 AM 10.1°F-12.2°C -5537.2°C 58% 22.0 mph NW35.4 kmh NW 29.0 mph46.7 kmh 30.07 in1018.3 mb 0.00 in0.0 mm 0.00 in/hr0.0 mm/hr 0.00 in0.0 mm
03:35 AM 10.0°F-12.2°C -5537.2°C 59% 9.0 mph NW14.5 kmh NW 22.0 mph35.4 kmh 30.07 in1018.3 mb 0.00 in0.0 mm 0.00 in/hr0.0 mm/hr 0.00 in0.0 mm
03:40 AM 9.9°F-12.3°C -5537.2°C 60% 15.0 mph NW24.1 kmh NW 22.0 mph35.4 kmh 30.07 in1018.3 mb 0.00 in0.0 mm 0.00 in/hr0.0 mm/hr 0.00 in0.0 mm
03:45 AM 9.7°F-12.4°C -5537.2°C 58% 15.0 mph NW24.1 kmh NW 27.0 mph43.5 kmh 30.08 in1018.6 mb 0.00 in0.0 mm 0.00 in/hr0.0 mm/hr 0.00 in0.0 mm
03:50 AM 9.6°F-12.4°C -5537.2°C 58% 22.0 mph NNW35.4 kmh NNW 23.0 mph37.0 kmh 30.08 in1018.6 mb 0.00 in0.0 mm 0.00 in/hr0.0 mm/hr 0.00 in0.0 mm
03:55 AM 9.5°F-12.5°C -2.0°F-18.9°C 59% 11.0 mph NW17.7 kmh NW 22.0 mph35.4 kmh 30.08 in1018.6 mb 0.00 in0.0 mm 0.00 in/hr0.0 mm/hr 0.00 in0.0 mm
04:00 AM 9.4°F-12.6°C -5537.2°C 60% 9.0 mph NNW14.5 kmh NNW 11.0 mph17.7 kmh 30.08 in1018.6 mb 0.00 in0.0 mm 0.00 in/hr0.0 mm/hr 0.00 in0.0 mm
04:05 AM 9.4°F-12.6°C -5537.2°C 61% 8.0 mph W12.9 kmh W 19.0 mph30.6 kmh 30.09 in1019.0 mb 0.00 in0.0 mm 0.00 in/hr0.0 mm/hr 0.00 in0.0 mm
04:10 AM 9.4°F-12.6°C -5537.2°C 64% 6.0 mph NW9.7 kmh NW 14.0 mph22.5 kmh 30.09 in1019.0 mb 0.00 in0.0 mm 0.00 in/hr0.0 mm/hr 0.00 in0.0 mm
04:15 AM 9.3°F-12.6°C -5537.2°C 64% 11.0 mph NNW17.7 kmh NNW 13.0 mph20.9 kmh 30.09 in1019.0 mb 0.00 in0.0 mm 0.00 in/hr0.0 mm/hr 0.00 in0.0 mm
04:20 AM 9.1°F-12.7°C -1.0°F-18.3°C 63% 9.0 mph NW14.5 kmh NW 20.0 mph32.2 kmh 30.09 in1019.0 mb 0.00 in0.0 mm 0.00 in/hr0.0 mm/hr 0.00 in0.0 mm
04:25 AM 8.8°F-12.9°C -5537.2°C 62% 11.0 mph NNW17.7 kmh NNW 23.0 mph37.0 kmh 30.09 in1019.0 mb 0.00 in0.0 mm 0.00 in/hr0.0 mm/hr 0.00 in0.0 mm
04:30 AM 8.7°F-12.9°C -2.0°F-18.9°C 61% 15.0 mph NNE24.1 kmh NNE 22.0 mph35.4 kmh 30.10 in1019.3 mb 0.00 in0.0 mm 0.00 in/hr0.0 mm/hr 0.00 in0.0 mm
04:35 AM 8.5°F-13.1°C -5537.2°C 61% 15.0 mph NW24.1 kmh NW 18.0 mph29.0 kmh 30.10 in1019.3 mb 0.00 in0.0 mm 0.00 in/hr0.0 mm/hr 0.00 in0.0 mm
04:40 AM 8.4°F-13.1°C -5537.2°C 61% 10.0 mph WNW16.1 kmh WNW 18.0 mph29.0 kmh 30.10 in1019.3 mb 0.00 in0.0 mm 0.00 in/hr0.0 mm/hr 0.00 in0.0 mm
04:45 AM 8.3°F-13.2°C -5537.2°C 61% 7.0 mph NW11.3 kmh NW 17.0 mph27.4 kmh 30.10 in1019.3 mb 0.00 in0.0 mm 0.00 in/hr0.0 mm/hr 0.00 in0.0 mm
04:50 AM 8.3°F-13.2°C -2.0°F-18.9°C 62% 13.0 mph WNW20.9 kmh WNW 20.0 mph32.2 kmh 30.10 in1019.3 mb 0.00 in0.0 mm 0.00 in/hr0.0 mm/hr 0.00 in0.0 mm
04:55 AM 8.2°F-13.2°C -5537.2°C 63% 9.0 mph WNW14.5 kmh WNW 20.0 mph32.2 kmh 30.10 in1019.3 mb 0.00 in0.0 mm 0.00 in/hr0.0 mm/hr 0.00 in0.0 mm
05:00 AM 8.2°F-13.2°C -5537.2°C 64% 15.0 mph WNW24.1 kmh WNW 18.0 mph29.0 kmh 30.10 in1019.3 mb 0.00 in0.0 mm 0.00 in/hr0.0 mm/hr 0.00 in0.0 mm
05:05 AM 8.1°F-13.3°C -5537.2°C 64% 15.0 mph NW24.1 kmh NW 17.0 mph27.4 kmh 30.10 in1019.3 mb 0.00 in0.0 mm 0.00 in/hr0.0 mm/hr 0.00 in0.0 mm
05:10 AM 8.1°F-13.3°C -5537.2°C 65% 11.0 mph NW17.7 kmh NW 17.0 mph27.4 kmh 30.11 in1019.6 mb 0.00 in0.0 mm 0.00 in/hr0.0 mm/hr 0.00 in0.0 mm
05:15 AM 8.0°F-13.3°C -1.0°F-18.3°C 66% 9.0 mph WNW14.5 kmh WNW 15.0 mph24.1 kmh 30.11 in1019.6 mb 0.00 in0.0 mm 0.00 in/hr0.0 mm/hr 0.00 in0.0 mm
05:20 AM 7.8°F-13.4°C -5537.2°C 66% 16.0 mph NW25.7 kmh NW 18.0 mph29.0 kmh 30.12 in1020.0 mb 0.00 in0.0 mm 0.00 in/hr0.0 mm/hr 0.00 in0.0 mm
05:25 AM 7.7°F-13.5°C -5537.2°C 66% 12.0 mph NNW19.3 kmh NNW 16.0 mph25.7 kmh 30.12 in1020.0 mb 0.00 in0.0 mm 0.00 in/hr0.0 mm/hr 0.00 in0.0 mm
05:30 AM 7.6°F-13.6°C -5537.2°C 66% 8.0 mph NNW12.9 kmh NNW 22.0 mph35.4 kmh 30.12 in1020.0 mb 0.00 in0.0 mm 0.00 in/hr0.0 mm/hr 0.00 in0.0 mm
05:35 AM 7.5°F-13.6°C -5537.2°C 66% 9.0 mph NW14.5 kmh NW 19.0 mph30.6 kmh 30.12 in1020.0 mb 0.00 in0.0 mm 0.00 in/hr0.0 mm/hr 0.00 in0.0 mm
05:40 AM 7.4°F-13.7°C -5537.2°C 66% 9.0 mph WNW14.5 kmh WNW 18.0 mph29.0 kmh 30.12 in1020.0 mb 0.00 in0.0 mm 0.00 in/hr0.0 mm/hr 0.00 in0.0 mm
05:45 AM 7.3°F-13.7°C -5537.2°C 67% 11.0 mph NW17.7 kmh NW 21.0 mph33.8 kmh 30.12 in1020.0 mb 0.00 in0.0 mm 0.00 in/hr0.0 mm/hr 0.00 in0.0 mm
05:50 AM 7.3°F-13.7°C -5537.2°C 67% 11.0 mph NNW17.7 kmh NNW 16.0 mph25.7 kmh 30.12 in1020.0 mb 0.00 in0.0 mm 0.00 in/hr0.0 mm/hr 0.00 in0.0 mm
05:55 AM 7.2°F-13.8°C -5537.2°C 68% 6.0 mph N9.7 kmh N 17.0 mph27.4 kmh 30.13 in1020.3 mb 0.00 in0.0 mm 0.00 in/hr0.0 mm/hr 0.00 in0.0 mm
06:00 AM 7.2°F-13.8°C -5537.2°C 68% 8.0 mph NW12.9 kmh NW 14.0 mph22.5 kmh 30.13 in1020.3 mb 0.00 in0.0 mm 0.00 in/hr0.0 mm/hr 0.00 in0.0 mm
06:05 AM 7.2°F-13.8°C -5537.2°C 68% 18.0 mph NW29.0 kmh NW 20.0 mph32.2 kmh 30.13 in1020.3 mb 0.00 in0.0 mm 0.00 in/hr0.0 mm/hr 0.00 in0.0 mm
06:10 AM 7.1°F-13.8°C -5537.2°C 69% 7.0 mph NW11.3 kmh NW 18.0 mph29.0 kmh 30.13 in1020.3 mb 0.00 in0.0 mm 0.00 in/hr0.0 mm/hr 0.00 in0.0 mm
06:15 AM 7.1°F-13.8°C -5537.2°C 69% 7.0 mph N11.3 kmh N 17.0 mph27.4 kmh 30.14 in1020.7 mb 0.00 in0.0 mm 0.00 in/hr0.0 mm/hr 0.00 in0.0 mm
06:20 AM 7.1°F-13.8°C -5537.2°C 69% 15.0 mph NW24.1 kmh NW 16.0 mph25.7 kmh 30.14 in1020.7 mb 0.00 in0.0 mm 0.00 in/hr0.0 mm/hr 0.00 in0.0 mm
06:25 AM 7.1°F-13.8°C -5537.2°C 70% 4.0 mph NW6.4 kmh NW 15.0 mph24.1 kmh 30.15 in1021.0 mb 0.00 in0.0 mm 0.00 in/hr0.0 mm/hr 0.00 in0.0 mm
06:30 AM 7.2°F-13.8°C -5537.2°C 70% 8.0 mph NW12.9 kmh NW 15.0 mph24.1 kmh 30.15 in1021.0 mb 0.00 in0.0 mm 0.00 in/hr0.0 mm/hr 0.00 in0.0 mm
06:36 AM 7.2°F-13.8°C -5537.2°C 71% 10.0 mph NW16.1 kmh NW 15.0 mph24.1 kmh 30.15 in1021.0 mb 0.00 in0.0 mm 0.00 in/hr0.0 mm/hr 0.00 in0.0 mm
06:40 AM 7.2°F-13.8°C -5537.2°C 71% 9.0 mph NW14.5 kmh NW 17.0 mph27.4 kmh 30.15 in1021.0 mb 0.00 in0.0 mm 0.00 in/hr0.0 mm/hr 0.00 in0.0 mm
06:45 AM 7.3°F-13.7°C -5537.2°C 71% 14.0 mph NW22.5 kmh NW 16.0 mph25.7 kmh 30.16 in1021.3 mb 0.00 in0.0 mm 0.00 in/hr0.0 mm/hr 0.00 in0.0 mm
06:50 AM 7.3°F-13.7°C -5537.2°C 71% 12.0 mph WNW19.3 kmh WNW 16.0 mph25.7 kmh 30.16 in1021.3 mb 0.00 in0.0 mm 0.00 in/hr0.0 mm/hr 0.00 in0.0 mm
06:55 AM 7.2°F-13.8°C -5537.2°C 71% 5.0 mph WNW8.0 kmh WNW 15.0 mph24.1 kmh 30.16 in1021.3 mb 0.00 in0.0 mm 0.00 in/hr0.0 mm/hr 0.00 in0.0 mm
07:00 AM 7.1°F-13.8°C -5537.2°C 71% 10.0 mph WNW16.1 kmh WNW 14.0 mph22.5 kmh 30.16 in1021.3 mb 0.00 in0.0 mm 0.00 in/hr0.0 mm/hr 0.00 in0.0 mm
07:05 AM 7.1°F-13.8°C -5537.2°C 71% 11.0 mph NW17.7 kmh NW 18.0 mph29.0 kmh 30.17 in1021.7 mb 0.00 in0.0 mm 0.00 in/hr0.0 mm/hr 0.00 in0.0 mm
07:10 AM 6.9°F-13.9°C -5537.2°C 71% 8.0 mph NW12.9 kmh NW 18.0 mph29.0 kmh 30.17 in1021.7 mb 0.00 in0.0 mm 0.00 in/hr0.0 mm/hr 0.00 in0.0 mm
07:15 AM 6.8°F-14.0°C -5537.2°C 71% 11.0 mph NW17.7 kmh NW 17.0 mph27.4 kmh 30.17 in1021.7 mb 0.00 in0.0 mm 0.00 in/hr0.0 mm/hr 0.00 in0.0 mm
07:20 AM 6.8°F-14.0°C -5537.2°C 72% 9.0 mph WSW14.5 kmh WSW 16.0 mph25.7 kmh 30.17 in1021.7 mb 0.00 in0.0 mm 0.00 in/hr0.0 mm/hr 0.00 in0.0 mm
07:25 AM 6.9°F-13.9°C -5537.2°C 72% 9.0 mph NW14.5 kmh NW 15.0 mph24.1 kmh 30.17 in1021.7 mb 0.00 in0.0 mm 0.00 in/hr0.0 mm/hr 0.00 in0.0 mm
07:30 AM 6.9°F-13.9°C -5537.2°C 72% 14.0 mph NW22.5 kmh NW 18.0 mph29.0 kmh 30.18 in1022.0 mb 0.00 in0.0 mm 0.00 in/hr0.0 mm/hr 0.00 in0.0 mm
07:35 AM 7.0°F-13.9°C -5537.2°C 72% 10.0 mph NW16.1 kmh NW 13.0 mph20.9 kmh 30.18 in1022.0 mb 0.00 in0.0 mm 0.00 in/hr0.0 mm/hr 0.00 in0.0 mm
07:40 AM 7.0°F-13.9°C -5537.2°C 72% 10.0 mph NW16.1 kmh NW 20.0 mph32.2 kmh 30.18 in1022.0 mb 0.00 in0.0 mm 0.00 in/hr0.0 mm/hr 0.00 in0.0 mm
07:45 AM 7.1°F-13.8°C 0.3°F-17.6°C 73% 6.0 mph NW9.7 kmh NW 14.0 mph22.5 kmh 30.18 in1022.0 mb 0.00 in0.0 mm 0.00 in/hr0.0 mm/hr 0.00 in0.0 mm
07:50 AM 7.1°F-13.8°C 0.3°F-17.6°C 73% 11.0 mph NW17.7 kmh NW 18.0 mph29.0 kmh 30.19 in1022.4 mb 0.00 in0.0 mm 0.00 in/hr0.0 mm/hr 0.00 in0.0 mm
07:55 AM 7.1°F-13.8°C 0.3°F-17.6°C 73% 11.0 mph NW17.7 kmh NW 15.0 mph24.1 kmh 30.19 in1022.4 mb 0.00 in0.0 mm 0.00 in/hr0.0 mm/hr 0.00 in0.0 mm
08:00 AM 7.0°F-13.9°C 0.2°F-17.7°C 73% 6.0 mph WNW9.7 kmh WNW 12.0 mph19.3 kmh 30.19 in1022.4 mb 0.00 in0.0 mm 0.00 in/hr0.0 mm/hr 0.00 in0.0 mm
08:05 AM 6.9°F-13.9°C 0.1°F-17.7°C 73% 7.0 mph NW11.3 kmh NW 14.0 mph22.5 kmh 30.20 in1022.7 mb 0.00 in0.0 mm 0.00 in/hr0.0 mm/hr 0.00 in0.0 mm
08:10 AM 6.9°F-13.9°C 0.1°F-17.7°C 73% 9.0 mph NW14.5 kmh NW 17.0 mph27.4 kmh 30.20 in1022.7 mb 0.00 in0.0 mm 0.00 in/hr0.0 mm/hr 0.00 in0.0 mm
08:15 AM 6.9°F-13.9°C 0.1°F-17.7°C 73% 12.0 mph NW19.3 kmh NW 14.0 mph22.5 kmh 30.20 in1022.7 mb 0.00 in0.0 mm 0.00 in/hr0.0 mm/hr 0.00 in0.0 mm
08:20 AM 7.0°F-13.9°C 0.2°F-17.7°C 73% 10.0 mph NW16.1 kmh NW 15.0 mph24.1 kmh 30.20 in1022.7 mb 0.00 in0.0 mm 0.00 in/hr0.0 mm/hr 0.00 in0.0 mm
08:25 AM 7.1°F-13.8°C 0.3°F-17.6°C 73% 8.0 mph NNW12.9 kmh NNW 14.0 mph22.5 kmh 30.21 in1023.0 mb 0.00 in0.0 mm 0.00 in/hr0.0 mm/hr 0.00 in0.0 mm
08:30 AM 7.3°F-13.7°C 0.4°F-17.6°C 73% 13.0 mph NW20.9 kmh NW 14.0 mph22.5 kmh 30.21 in1023.0 mb 0.00 in0.0 mm 0.00 in/hr0.0 mm/hr 0.00 in0.0 mm
08:35 AM 7.4°F-13.7°C 0.5°F-17.5°C 73% 12.0 mph NW19.3 kmh NW 18.0 mph29.0 kmh 30.21 in1023.0 mb 0.00 in0.0 mm 0.00 in/hr0.0 mm/hr 0.00 in0.0 mm
08:40 AM 7.7°F-13.5°C 0.8°F-17.3°C 73% 8.0 mph N12.9 kmh N 15.0 mph24.1 kmh 30.21 in1023.0 mb 0.00 in0.0 mm 0.00 in/hr0.0 mm/hr 0.00 in0.0 mm
08:45 AM 8.0°F-13.3°C 1.4°F-17.0°C 74% 9.0 mph NW14.5 kmh NW 16.0 mph25.7 kmh 30.21 in1023.0 mb 0.00 in0.0 mm 0.00 in/hr0.0 mm/hr 0.00 in0.0 mm
08:50 AM 8.1°F-13.3°C 1.5°F-16.9°C 74% 13.0 mph NW20.9 kmh NW 15.0 mph24.1 kmh 30.22 in1023.4 mb 0.00 in0.0 mm 0.00 in/hr0.0 mm/hr 0.00 in0.0 mm
08:55 AM 8.2°F-13.2°C 1.6°F-16.9°C 74% 8.0 mph NW12.9 kmh NW 15.0 mph24.1 kmh 30.22 in1023.4 mb 0.00 in0.0 mm 0.00 in/hr0.0 mm/hr 0.00 in0.0 mm
09:00 AM 8.5°F-13.1°C 1.9°F-16.7°C 74% 13.0 mph NNW20.9 kmh NNW 17.0 mph27.4 kmh 30.22 in1023.4 mb 0.00 in0.0 mm 0.00 in/hr0.0 mm/hr 0.00 in0.0 mm
09:05 AM 8.8°F-12.9°C 2.2°F-16.6°C 74% 11.0 mph NW17.7 kmh NW 16.0 mph25.7 kmh 30.22 in1023.4 mb 0.00 in0.0 mm 0.00 in/hr0.0 mm/hr 0.00 in0.0 mm
09:10 AM 9.2°F-12.7°C 2.6°F-16.3°C 74% 7.0 mph NW11.3 kmh NW 14.0 mph22.5 kmh 30.22 in1023.4 mb 0.00 in0.0 mm 0.00 in/hr0.0 mm/hr 0.00 in0.0 mm
09:15 AM 9.5°F-12.5°C 2.9°F-16.2°C 74% 11.0 mph NW17.7 kmh NW 16.0 mph25.7 kmh 30.23 in1023.7 mb 0.00 in0.0 mm 0.00 in/hr0.0 mm/hr 0.00 in0.0 mm
09:20 AM 9.6°F-12.4°C 3.0°F-16.1°C 74% 9.0 mph NW14.5 kmh NW 14.0 mph22.5 kmh 30.23 in1023.7 mb 0.00 in0.0 mm 0.00 in/hr0.0 mm/hr 0.00 in0.0 mm
09:25 AM 9.9°F-12.3°C 3.0°F-16.1°C 73% 8.0 mph NW12.9 kmh NW 14.0 mph22.5 kmh 30.23 in1023.7 mb 0.00 in0.0 mm 0.00 in/hr0.0 mm/hr 0.00 in0.0 mm
09:30 AM 10.0°F-12.2°C 3.1°F-16.1°C 73% 7.0 mph NW11.3 kmh NW 16.0 mph25.7 kmh 30.24 in1024.0 mb 0.00 in0.0 mm 0.00 in/hr0.0 mm/hr 0.00 in0.0 mm
09:35 AM 10.0°F-12.2°C 2.8°F-16.2°C 72% 7.0 mph NW11.3 kmh NW 13.0 mph20.9 kmh 30.24 in1024.0 mb 0.00 in0.0 mm 0.00 in/hr0.0 mm/hr 0.00 in0.0 mm
09:40 AM 10.1°F-12.2°C 2.9°F-16.2°C 72% 11.0 mph NW17.7 kmh NW 15.0 mph24.1 kmh 30.24 in1024.0 mb 0.00 in0.0 mm 0.00 in/hr0.0 mm/hr 0.00 in0.0 mm
09:45 AM 10.1°F-12.2°C 2.6°F-16.3°C 71% 12.0 mph NW19.3 kmh NW 15.0 mph24.1 kmh 30.24 in1024.0 mb 0.00 in0.0 mm 0.00 in/hr0.0 mm/hr 0.00 in0.0 mm
09:50 AM 10.3°F-12.1°C 2.7°F-16.3°C 71% 6.0 mph NNW9.7 kmh NNW 12.0 mph19.3 kmh 30.25 in1024.4 mb 0.00 in0.0 mm 0.00 in/hr0.0 mm/hr 0.00 in0.0 mm
09:55 AM 10.4°F-12.0°C 2.5°F-16.4°C 70% 6.0 mph N9.7 kmh N 14.0 mph22.5 kmh 30.25 in1024.4 mb 0.00 in0.0 mm 0.00 in/hr0.0 mm/hr 0.00 in0.0 mm
10:00 AM 10.8°F-11.8°C 2.9°F-16.2°C 70% 9.0 mph NW14.5 kmh NW 13.0 mph20.9 kmh 30.25 in1024.4 mb 0.00 in0.0 mm 0.00 in/hr0.0 mm/hr 0.00 in0.0 mm
10:05 AM 11.6°F-11.3°C 3.4°F-15.9°C 69% 7.0 mph NNW11.3 kmh NNW 16.0 mph25.7 kmh 30.25 in1024.4 mb 0.00 in0.0 mm 0.00 in/hr0.0 mm/hr 0.00 in0.0 mm
10:10 AM 12.1°F-11.1°C 3.2°F-16.0°C 67% 9.0 mph NW14.5 kmh NW 14.0 mph22.5 kmh 30.25 in1024.4 mb 0.00 in0.0 mm 0.00 in/hr0.0 mm/hr 0.00 in0.0 mm
10:15 AM 12.4°F-10.9°C 3.2°F-16.0°C 66% 10.0 mph N16.1 kmh N 12.0 mph19.3 kmh 30.25 in1024.4 mb 0.00 in0.0 mm 0.00 in/hr0.0 mm/hr 0.00 in0.0 mm
10:20 AM 12.6°F-10.8°C 3.1°F-16.1°C 65% 9.0 mph NW14.5 kmh NW 14.0 mph22.5 kmh 30.25 in1024.4 mb 0.00 in0.0 mm 0.00 in/hr0.0 mm/hr 0.00 in0.0 mm
10:25 AM 13.1°F-10.5°C 3.5°F-15.8°C 65% 10.0 mph NNW16.1 kmh NNW 14.0 mph22.5 kmh 30.25 in1024.4 mb 0.00 in0.0 mm 0.00 in/hr0.0 mm/hr 0.00 in0.0 mm
10:30 AM 13.7°F-10.2°C 3.8°F-15.7°C 64% 9.0 mph NW14.5 kmh NW 17.0 mph27.4 kmh 30.25 in1024.4 mb 0.00 in0.0 mm 0.00 in/hr0.0 mm/hr 0.00 in0.0 mm
10:35 AM 13.8°F-10.1°C 3.2°F-16.0°C 62% 14.0 mph NW22.5 kmh NW 15.0 mph24.1 kmh 30.25 in1024.4 mb 0.00 in0.0 mm 0.00 in/hr0.0 mm/hr 0.00 in0.0 mm
10:40 AM 14.1°F-9.9°C 3.5°F-15.8°C 62% 13.0 mph NW20.9 kmh NW 14.0 mph22.5 kmh 30.25 in1024.4 mb 0.00 in0.0 mm 0.00 in/hr0.0 mm/hr 0.00 in0.0 mm
10:45 AM 14.6°F-9.7°C 3.9°F-15.6°C 62% 9.0 mph N14.5 kmh N 17.0 mph27.4 kmh 30.25 in1024.4 mb 0.00 in0.0 mm 0.00 in/hr0.0 mm/hr 0.00 in0.0 mm
10:50 AM 14.8°F-9.6°C 3.4°F-15.9°C 60% 14.0 mph N22.5 kmh N 14.0 mph22.5 kmh 30.25 in1024.4 mb 0.00 in0.0 mm 0.00 in/hr0.0 mm/hr 0.00 in0.0 mm
10:55 AM 14.9°F-9.5°C 3.5°F-15.8°C 60% 14.0 mph NW22.5 kmh NW 14.0 mph22.5 kmh 30.25 in1024.4 mb 0.00 in0.0 mm 0.00 in/hr0.0 mm/hr 0.00 in0.0 mm
11:00 AM 15.4°F-9.2°C 3.6°F-15.8°C 59% 11.0 mph NW17.7 kmh NW 15.0 mph24.1 kmh 30.25 in1024.4 mb 0.00 in0.0 mm 0.00 in/hr0.0 mm/hr 0.00 in0.0 mm
11:05 AM 15.5°F-9.2°C 3.0°F-16.1°C 57% 7.0 mph NW11.3 kmh NW 13.0 mph20.9 kmh 30.24 in1024.0 mb 0.00 in0.0 mm 0.00 in/hr0.0 mm/hr 0.00 in0.0 mm
11:10 AM 15.8°F-9.0°C 3.3°F-15.9°C 57% 13.0 mph NW20.9 kmh NW 18.0 mph29.0 kmh 30.24 in1024.0 mb 0.00 in0.0 mm 0.00 in/hr0.0 mm/hr 0.00 in0.0 mm
11:15 AM 16.1°F-8.8°C 3.2°F-16.0°C 56% 13.0 mph NNW20.9 kmh NNW 16.0 mph25.7 kmh 30.24 in1024.0 mb 0.00 in0.0 mm 0.00 in/hr0.0 mm/hr 0.00 in0.0 mm
11:20 AM 16.3°F-8.7°C 2.9°F-16.2°C 55% 11.0 mph NW17.7 kmh NW 14.0 mph22.5 kmh 30.24 in1024.0 mb 0.00 in0.0 mm 0.00 in/hr0.0 mm/hr 0.00 in0.0 mm
11:25 AM 16.4°F-8.7°C 2.6°F-16.3°C 54% 9.0 mph NW14.5 kmh NW 14.0 mph22.5 kmh 30.24 in1024.0 mb 0.00 in0.0 mm 0.00 in/hr0.0 mm/hr 0.00 in0.0 mm
11:30 AM 16.9°F-8.4°C 3.5°F-15.8°C 55% 7.0 mph W11.3 kmh W 14.0 mph22.5 kmh 30.24 in1024.0 mb 0.00 in0.0 mm 0.00 in/hr0.0 mm/hr 0.00 in0.0 mm
11:35 AM 17.1°F-8.3°C 2.9°F-16.2°C 53% 9.0 mph WNW14.5 kmh WNW 14.0 mph22.5 kmh 30.24 in1024.0 mb 0.00 in0.0 mm 0.00 in/hr0.0 mm/hr 0.00 in0.0 mm
11:40 AM 17.3°F-8.2°C 2.7°F-16.3°C 52% 11.0 mph NW17.7 kmh NW 17.0 mph27.4 kmh 30.24 in1024.0 mb 0.00 in0.0 mm 0.00 in/hr0.0 mm/hr 0.00 in0.0 mm
11:45 AM 17.4°F-8.1°C 1.9°F-16.7°C 50% 11.0 mph WNW17.7 kmh WNW 16.0 mph25.7 kmh 30.24 in1024.0 mb 0.00 in0.0 mm 0.00 in/hr0.0 mm/hr 0.00 in0.0 mm
11:50 AM 17.2°F-8.2°C 2.2°F-16.6°C 51% 5.0 mph NNW8.0 kmh NNW 14.0 mph22.5 kmh 30.24 in1024.0 mb 0.00 in0.0 mm 0.00 in/hr0.0 mm/hr 0.00 in0.0 mm
11:55 AM 17.2°F-8.2°C 2.2°F-16.6°C 51% 12.0 mph WNW19.3 kmh WNW 21.0 mph33.8 kmh 30.24 in1024.0 mb 0.00 in0.0 mm 0.00 in/hr0.0 mm/hr 0.00 in0.0 mm
12:00 PM 17.2°F-8.2°C 1.7°F-16.8°C 50% 9.0 mph NW14.5 kmh NW 16.0 mph25.7 kmh 30.24 in1024.0 mb 0.00 in0.0 mm 0.00 in/hr0.0 mm/hr 0.00 in0.0 mm
12:05 PM 17.2°F-8.2°C 2.2°F-16.6°C 51% 7.0 mph NW11.3 kmh NW 15.0 mph24.1 kmh 30.24 in1024.0 mb 0.00 in0.0 mm 0.00 in/hr0.0 mm/hr 0.00 in0.0 mm
12:10 PM 17.4°F-8.1°C 1.9°F-16.7°C 50% 11.0 mph WNW17.7 kmh WNW 16.0 mph25.7 kmh 30.23 in1023.7 mb 0.00 in0.0 mm 0.00 in/hr0.0 mm/hr 0.00 in0.0 mm
12:15 PM 17.7°F-7.9°C 2.2°F-16.6°C 50% 10.0 mph NW16.1 kmh NW 15.0 mph24.1 kmh 30.23 in1023.7 mb 0.00 in0.0 mm 0.00 in/hr0.0 mm/hr 0.00 in0.0 mm
12:20 PM 17.9°F-7.8°C 2.0°F-16.7°C 49% 12.0 mph NW19.3 kmh NW 16.0 mph25.7 kmh 30.24 in1024.0 mb 0.00 in0.0 mm 0.00 in/hr0.0 mm/hr 0.00 in0.0 mm
12:25 PM 17.9°F-7.8°C 1.5°F-16.9°C 48% 6.0 mph NW9.7 kmh NW 17.0 mph27.4 kmh 30.23 in1023.7 mb 0.00 in0.0 mm 0.00 in/hr0.0 mm/hr 0.00 in0.0 mm
12:30 PM 18.3°F-7.6°C 1.9°F-16.7°C 48% 13.0 mph NW20.9 kmh NW 20.0 mph32.2 kmh 30.24 in1024.0 mb 0.00 in0.0 mm 0.00 in/hr0.0 mm/hr 0.00 in0.0 mm
12:35 PM 18.4°F-7.6°C 1.5°F-16.9°C 47% 11.0 mph NW17.7 kmh NW 18.0 mph29.0 kmh 30.24 in1024.0 mb 0.00 in0.0 mm 0.00 in/hr0.0 mm/hr 0.00 in0.0 mm
12:40 PM 18.7°F-7.4°C 2.3°F-16.5°C 48% 11.0 mph N17.7 kmh N 13.0 mph20.9 kmh 30.23 in1023.7 mb 0.00 in0.0 mm 0.00 in/hr0.0 mm/hr 0.00 in0.0 mm
12:45 PM 19.1°F-7.2°C 1.7°F-16.8°C 46% 4.0 mph WNW6.4 kmh WNW 16.0 mph25.7 kmh 30.23 in1023.7 mb 0.00 in0.0 mm 0.00 in/hr0.0 mm/hr 0.00 in0.0 mm
12:50 PM 19.5°F-6.9°C 2.1°F-16.6°C 46% 11.0 mph WNW17.7 kmh WNW 15.0 mph24.1 kmh 30.23 in1023.7 mb 0.00 in0.0 mm 0.00 in/hr0.0 mm/hr 0.00 in0.0 mm
12:55 PM 19.5°F-6.9°C 1.6°F-16.9°C 45% 10.0 mph WNW16.1 kmh WNW 15.0 mph24.1 kmh 30.24 in1024.0 mb 0.00 in0.0 mm 0.00 in/hr0.0 mm/hr 0.00 in0.0 mm
01:00 PM 19.4°F-7.0°C 1.5°F-16.9°C 45% 9.0 mph NW14.5 kmh NW 16.0 mph25.7 kmh 30.24 in1024.0 mb 0.00 in0.0 mm 0.00 in/hr0.0 mm/hr 0.00 in0.0 mm
01:05 PM 19.3°F-7.1°C 0.9°F-17.3°C 44% 12.0 mph NNW19.3 kmh NNW 18.0 mph29.0 kmh 30.24 in1024.0 mb 0.00 in0.0 mm 0.00 in/hr0.0 mm/hr 0.00 in0.0 mm
01:10 PM 19.3°F-7.1°C 1.4°F-17.0°C 45% 13.0 mph NNW20.9 kmh NNW 15.0 mph24.1 kmh 30.24 in1024.0 mb 0.00 in0.0 mm 0.00 in/hr0.0 mm/hr 0.00 in0.0 mm
01:15 PM 19.6°F-6.9°C 1.7°F-16.8°C 45% 17.0 mph W27.4 kmh W 17.0 mph27.4 kmh 30.24 in1024.0 mb 0.00 in0.0 mm 0.00 in/hr0.0 mm/hr 0.00 in0.0 mm
01:20 PM 19.1°F-7.2°C 0.3°F-17.6°C 43% 11.0 mph NNW17.7 kmh NNW 16.0 mph25.7 kmh 30.24 in1024.0 mb 0.00 in0.0 mm 0.00 in/hr0.0 mm/hr 0.00 in0.0 mm
01:25 PM 19.0°F-7.2°C 1.1°F-17.2°C 45% 12.0 mph NNW19.3 kmh NNW 18.0 mph29.0 kmh 30.24 in1024.0 mb 0.00 in0.0 mm 0.00 in/hr0.0 mm/hr 0.00 in0.0 mm
01:30 PM 19.4°F-7.0°C 0.5°F-17.5°C 43% 13.0 mph NW20.9 kmh NW 18.0 mph29.0 kmh 30.24 in1024.0 mb 0.00 in0.0 mm 0.00 in/hr0.0 mm/hr 0.00 in0.0 mm
01:35 PM 19.2°F-7.1°C 0.4°F-17.6°C 43% 8.0 mph NW12.9 kmh NW 17.0 mph27.4 kmh 30.25 in1024.4 mb 0.00 in0.0 mm 0.00 in/hr0.0 mm/hr 0.00 in0.0 mm
01:40 PM 19.1°F-7.2°C 0.8°F-17.3°C 44% 11.0 mph WNW17.7 kmh WNW 17.0 mph27.4 kmh 30.25 in1024.4 mb 0.00 in0.0 mm 0.00 in/hr0.0 mm/hr 0.00 in0.0 mm
01:45 PM 19.5°F-6.9°C 0.6°F-17.4°C 43% 17.0 mph NW27.4 kmh NW 19.0 mph30.6 kmh 30.25 in1024.4 mb 0.00 in0.0 mm 0.00 in/hr0.0 mm/hr 0.00 in0.0 mm
01:50 PM 19.5°F-6.9°C 0.6°F-17.4°C 43% 9.0 mph NNW14.5 kmh NNW 17.0 mph27.4 kmh 30.25 in1024.4 mb 0.00 in0.0 mm 0.00 in/hr0.0 mm/hr 0.00 in0.0 mm
01:55 PM 19.7°F-6.8°C 0.3°F-17.6°C 42% 8.0 mph WNW12.9 kmh WNW 19.0 mph30.6 kmh 30.25 in1024.4 mb 0.00 in0.0 mm 0.00 in/hr0.0 mm/hr 0.00 in0.0 mm
02:00 PM 19.8°F-6.8°C 0.9°F-17.3°C 43% 16.0 mph NNW25.7 kmh NNW 19.0 mph30.6 kmh 30.25 in1024.4 mb 0.00 in0.0 mm 0.00 in/hr0.0 mm/hr 0.00 in0.0 mm
02:05 PM 19.9°F-6.7°C 0.5°F-17.5°C 42% 10.0 mph WNW16.1 kmh WNW 19.0 mph30.6 kmh 30.25 in1024.4 mb 0.00 in0.0 mm 0.00 in/hr0.0 mm/hr 0.00 in0.0 mm
02:10 PM 19.9°F-6.7°C 0.5°F-17.5°C 42% 9.0 mph W14.5 kmh W 18.0 mph29.0 kmh 30.26 in1024.7 mb 0.00 in0.0 mm 0.00 in/hr0.0 mm/hr 0.00 in0.0 mm
02:15 PM 19.8°F-6.8°C 0.4°F-17.6°C 42% 10.0 mph NW16.1 kmh NW 18.0 mph29.0 kmh 30.26 in1024.7 mb 0.00 in0.0 mm 0.00 in/hr0.0 mm/hr 0.00 in0.0 mm
02:20 PM 19.9°F-6.7°C 1.0°F-17.2°C 43% 11.0 mph WSW17.7 kmh WSW 19.0 mph30.6 kmh 30.26 in1024.7 mb 0.00 in0.0 mm 0.00 in/hr0.0 mm/hr 0.00 in0.0 mm
02:25 PM 20.0°F-6.7°C 1.1°F-17.2°C 43% 8.0 mph WSW12.9 kmh WSW 17.0 mph27.4 kmh 30.26 in1024.7 mb 0.00 in0.0 mm 0.00 in/hr0.0 mm/hr 0.00 in0.0 mm
02:30 PM 20.2°F-6.6°C 1.3°F-17.1°C 43% 10.0 mph NNW16.1 kmh NNW 16.0 mph25.7 kmh 30.26 in1024.7 mb 0.00 in0.0 mm 0.00 in/hr0.0 mm/hr 0.00 in0.0 mm
02:35 PM 20.0°F-6.7°C 1.1°F-17.2°C 43% 7.0 mph NW11.3 kmh NW 18.0 mph29.0 kmh 30.27 in1025.1 mb 0.00 in0.0 mm 0.00 in/hr0.0 mm/hr 0.00 in0.0 mm
02:40 PM 19.9°F-6.7°C 1.0°F-17.2°C 43% 10.0 mph NW16.1 kmh NW 19.0 mph30.6 kmh 30.27 in1025.1 mb 0.00 in0.0 mm 0.00 in/hr0.0 mm/hr 0.00 in0.0 mm
02:45 PM 19.8°F-6.8°C 1.4°F-17.0°C 44% 9.0 mph W14.5 kmh W 17.0 mph27.4 kmh 30.27 in1025.1 mb 0.00 in0.0 mm 0.00 in/hr0.0 mm/hr 0.00 in0.0 mm
02:50 PM 19.9°F-6.7°C 1.5°F-16.9°C 44% 9.0 mph WNW14.5 kmh WNW 14.0 mph22.5 kmh 30.27 in1025.1 mb 0.00 in0.0 mm 0.00 in/hr0.0 mm/hr 0.00 in0.0 mm
02:55 PM 20.0°F-6.7°C 1.6°F-16.9°C 44% 11.0 mph NW17.7 kmh NW 15.0 mph24.1 kmh 30.27 in1025.1 mb 0.00 in0.0 mm 0.00 in/hr0.0 mm/hr 0.00 in0.0 mm
03:00 PM 19.8°F-6.8°C 0.4°F-17.6°C 42% 10.0 mph NW16.1 kmh NW 18.0 mph29.0 kmh 30.27 in1025.1 mb 0.00 in0.0 mm 0.00 in/hr0.0 mm/hr 0.00 in0.0 mm
03:05 PM 19.2°F-7.1°C 0.4°F-17.6°C 43% 18.0 mph NNW29.0 kmh NNW 21.0 mph33.8 kmh 30.28 in1025.4 mb 0.00 in0.0 mm 0.00 in/hr0.0 mm/hr 0.00 in0.0 mm
03:10 PM 18.9°F-7.3°C 0.1°F-17.7°C 43% 9.0 mph NW14.5 kmh NW 20.0 mph32.2 kmh 30.28 in1025.4 mb 0.00 in0.0 mm 0.00 in/hr0.0 mm/hr 0.00 in0.0 mm
03:15 PM 19.1°F-7.2°C 0.8°F-17.3°C 44% 14.0 mph NW22.5 kmh NW 20.0 mph32.2 kmh 30.28 in1025.4 mb 0.00 in0.0 mm 0.00 in/hr0.0 mm/hr 0.00 in0.0 mm
03:20 PM 18.9°F-7.3°C 0.6°F-17.4°C 44% 9.0 mph WNW14.5 kmh WNW 21.0 mph33.8 kmh 30.28 in1025.4 mb 0.00 in0.0 mm 0.00 in/hr0.0 mm/hr 0.00 in0.0 mm
03:25 PM 18.8°F-7.3°C 1.0°F-17.2°C 45% 11.0 mph NW17.7 kmh NW 16.0 mph25.7 kmh 30.29 in1025.7 mb 0.00 in0.0 mm 0.00 in/hr0.0 mm/hr 0.00 in0.0 mm
03:30 PM 18.6°F-7.4°C 0.3°F-17.6°C 44% 10.0 mph NW16.1 kmh NW 20.0 mph32.2 kmh 30.29 in1025.7 mb 0.00 in0.0 mm 0.00 in/hr0.0 mm/hr 0.00 in0.0 mm
03:35 PM 18.2°F-7.7°C -5537.2°C 44% 14.0 mph NNW22.5 kmh NNW 23.0 mph37.0 kmh 30.29 in1025.7 mb 0.00 in0.0 mm 0.00 in/hr0.0 mm/hr 0.00 in0.0 mm
03:40 PM 18.0°F-7.8°C -5537.2°C 44% 15.0 mph NW24.1 kmh NW 19.0 mph30.6 kmh 30.29 in1025.7 mb 0.00 in0.0 mm 0.00 in/hr0.0 mm/hr 0.00 in0.0 mm
03:45 PM 17.7°F-7.9°C -5537.2°C 44% 11.0 mph NNW17.7 kmh NNW 21.0 mph33.8 kmh 30.30 in1026.1 mb 0.00 in0.0 mm 0.00 in/hr0.0 mm/hr 0.00 in0.0 mm
03:50 PM 17.6°F-8.0°C -5537.2°C 45% 11.0 mph NW17.7 kmh NW 17.0 mph27.4 kmh 30.30 in1026.1 mb 0.00 in0.0 mm 0.00 in/hr0.0 mm/hr 0.00 in0.0 mm
03:55 PM 17.5°F-8.1°C -5537.2°C 45% 12.0 mph NNW19.3 kmh NNW 17.0 mph27.4 kmh 30.30 in1026.1 mb 0.00 in0.0 mm 0.00 in/hr0.0 mm/hr 0.00 in0.0 mm
04:00 PM 17.3°F-8.2°C 0.1°F-17.7°C 46% 11.0 mph NW17.7 kmh NW 18.0 mph29.0 kmh 30.30 in1026.1 mb 0.00 in0.0 mm 0.00 in/hr0.0 mm/hr 0.00 in0.0 mm
04:05 PM 17.2°F-8.2°C 0.4°F-17.6°C 47% 7.0 mph NW11.3 kmh NW 16.0 mph25.7 kmh 30.30 in1026.1 mb 0.00 in0.0 mm 0.00 in/hr0.0 mm/hr 0.00 in0.0 mm
04:10 PM 17.0°F-8.3°C 0.7°F-17.4°C 48% 11.0 mph NW17.7 kmh NW 19.0 mph30.6 kmh 30.31 in1026.4 mb 0.00 in0.0 mm 0.00 in/hr0.0 mm/hr 0.00 in0.0 mm
04:15 PM 16.7°F-8.5°C 0.4°F-17.6°C 48% 5.0 mph NW8.0 kmh NW 15.0 mph24.1 kmh 30.31 in1026.4 mb 0.00 in0.0 mm 0.00 in/hr0.0 mm/hr 0.00 in0.0 mm
04:20 PM 16.6°F-8.6°C 1.2°F-17.1°C 50% 11.0 mph NW17.7 kmh NW 17.0 mph27.4 kmh 30.31 in1026.4 mb 0.00 in0.0 mm 0.00 in/hr0.0 mm/hr 0.00 in0.0 mm
04:25 PM 16.3°F-8.7°C 0.5°F-17.5°C 49% 13.0 mph NW20.9 kmh NW 19.0 mph30.6 kmh 30.32 in1026.8 mb 0.00 in0.0 mm 0.00 in/hr0.0 mm/hr 0.00 in0.0 mm
04:30 PM 16.0°F-8.9°C 0.2°F-17.7°C 49% 5.0 mph NW8.0 kmh NW 20.0 mph32.2 kmh 30.32 in1026.8 mb 0.00 in0.0 mm 0.00 in/hr0.0 mm/hr 0.00 in0.0 mm
04:35 PM 14.0°F-10.0°C 0.0°F-17.8°C 53% 10.0 mph NW16.1 kmh NW 17.0 mph27.4 kmh 30.32 in1026.8 mb 0.00 in0.0 mm 0.00 in/hr0.0 mm/hr 0.00 in0.0 mm
04:40 PM 13.7°F-10.2°C -5537.2°C 53% 7.0 mph W11.3 kmh W 20.0 mph32.2 kmh 30.32 in1026.8 mb 0.00 in0.0 mm 0.00 in/hr0.0 mm/hr 0.00 in0.0 mm
04:45 PM 13.6°F-10.2°C 0.0°F-17.8°C 54% 9.0 mph NW14.5 kmh NW 18.0 mph29.0 kmh 30.33 in1027.1 mb 0.00 in0.0 mm 0.00 in/hr0.0 mm/hr 0.00 in0.0 mm
04:50 PM 13.4°F-10.3°C -5537.2°C 53% 11.0 mph NW17.7 kmh NW 22.0 mph35.4 kmh 30.33 in1027.1 mb 0.00 in0.0 mm 0.00 in/hr0.0 mm/hr 0.00 in0.0 mm
04:55 PM 13.2°F-10.4°C -5537.2°C 53% 20.0 mph NW32.2 kmh NW 20.0 mph32.2 kmh 30.33 in1027.1 mb 0.00 in0.0 mm 0.00 in/hr0.0 mm/hr 0.00 in0.0 mm
05:00 PM 13.0°F-10.6°C -5537.2°C 54% 13.0 mph NW20.9 kmh NW 23.0 mph37.0 kmh 30.33 in1027.1 mb 0.00 in0.0 mm 0.00 in/hr0.0 mm/hr 0.00 in0.0 mm
05:05 PM 12.8°F-10.7°C -5537.2°C 54% 9.0 mph NW14.5 kmh NW 18.0 mph29.0 kmh 30.34 in1027.4 mb 0.00 in0.0 mm 0.00 in/hr0.0 mm/hr 0.00 in0.0 mm
05:10 PM 12.7°F-10.7°C -5537.2°C 54% 18.0 mph NW29.0 kmh NW 18.0 mph29.0 kmh 30.34 in1027.4 mb 0.00 in0.0 mm 0.00 in/hr0.0 mm/hr 0.00 in0.0 mm
05:15 PM 12.6°F-10.8°C -5537.2°C 54% 13.0 mph NW20.9 kmh NW 19.0 mph30.6 kmh 30.35 in1027.8 mb 0.00 in0.0 mm 0.00 in/hr0.0 mm/hr 0.00 in0.0 mm
05:20 PM 12.5°F-10.8°C -5537.2°C 55% 10.0 mph NNW16.1 kmh NNW 21.0 mph33.8 kmh 30.35 in1027.8 mb 0.00 in0.0 mm 0.00 in/hr0.0 mm/hr 0.00 in0.0 mm
05:25 PM 12.5°F-10.8°C -5537.2°C 56% 13.0 mph N20.9 kmh N 19.0 mph30.6 kmh 30.35 in1027.8 mb 0.00 in0.0 mm 0.00 in/hr0.0 mm/hr 0.00 in0.0 mm
05:30 PM 12.4°F-10.9°C -5537.2°C 56% 10.0 mph NW16.1 kmh NW 22.0 mph35.4 kmh 30.35 in1027.8 mb 0.00 in0.0 mm 0.00 in/hr0.0 mm/hr 0.00 in0.0 mm
05:36 PM 12.3°F-10.9°C 0.0°F-17.8°C 57% 9.0 mph NW14.5 kmh NW 15.0 mph24.1 kmh 30.35 in1027.8 mb 0.00 in0.0 mm 0.00 in/hr0.0 mm/hr 0.00 in0.0 mm
05:40 PM 12.2°F-11.0°C -5537.2°C 56% 13.0 mph NW20.9 kmh NW 21.0 mph33.8 kmh 30.35 in1027.8 mb 0.00 in0.0 mm 0.00 in/hr0.0 mm/hr 0.00 in0.0 mm
05:45 PM 12.2°F-11.0°C -5537.2°C 56% 8.0 mph NW12.9 kmh NW 21.0 mph33.8 kmh 30.36 in1028.1 mb 0.00 in0.0 mm 0.00 in/hr0.0 mm/hr 0.00 in0.0 mm
05:50 PM 12.1°F-11.1°C -5537.2°C 57% 7.0 mph W11.3 kmh W 20.0 mph32.2 kmh 30.36 in1028.1 mb 0.00 in0.0 mm 0.00 in/hr0.0 mm/hr 0.00 in0.0 mm
05:55 PM 12.0°F-11.1°C -5537.2°C 57% 11.0 mph NW17.7 kmh NW 23.0 mph37.0 kmh 30.36 in1028.1 mb 0.00 in0.0 mm 0.00 in/hr0.0 mm/hr 0.00 in0.0 mm
06:00 PM 11.9°F-11.2°C -5537.2°C 57% 11.0 mph NW17.7 kmh NW 21.0 mph33.8 kmh 30.36 in1028.1 mb 0.00 in0.0 mm 0.00 in/hr0.0 mm/hr 0.00 in0.0 mm
06:05 PM 11.9°F-11.2°C -5537.2°C 57% 9.0 mph NW14.5 kmh NW 26.0 mph41.8 kmh 30.37 in1028.4 mb 0.00 in0.0 mm 0.00 in/hr0.0 mm/hr 0.00 in0.0 mm
06:10 PM 11.9°F-11.2°C 0.0°F-17.8°C 58% 6.0 mph NW9.7 kmh NW 17.0 mph27.4 kmh 30.36 in1028.1 mb 0.00 in0.0 mm 0.00 in/hr0.0 mm/hr 0.00 in0.0 mm
06:15 PM 11.8°F-11.2°C 0.2°F-17.7°C 59% 18.0 mph NNW29.0 kmh NNW 19.0 mph30.6 kmh 30.37 in1028.4 mb 0.00 in0.0 mm 0.00 in/hr0.0 mm/hr 0.00 in0.0 mm
06:20 PM 11.7°F-11.3°C -5537.2°C 58% 7.0 mph W11.3 kmh W 18.0 mph29.0 kmh 30.37 in1028.4 mb 0.00 in0.0 mm 0.00 in/hr0.0 mm/hr 0.00 in0.0 mm
06:25 PM 11.6°F-11.3°C -5537.2°C 58% 9.0 mph NW14.5 kmh NW 23.0 mph37.0 kmh 30.37 in1028.4 mb 0.00 in0.0 mm 0.00 in/hr0.0 mm/hr 0.00 in0.0 mm
06:30 PM 11.5°F-11.4°C -5537.2°C 58% 13.0 mph NW20.9 kmh NW 22.0 mph35.4 kmh 30.37 in1028.4 mb 0.00 in0.0 mm 0.00 in/hr0.0 mm/hr 0.00 in0.0 mm
06:35 PM 11.5°F-11.4°C -5537.2°C 59% 10.0 mph NW16.1 kmh NW 24.0 mph38.6 kmh 30.38 in1028.8 mb 0.00 in0.0 mm 0.00 in/hr0.0 mm/hr 0.00 in0.0 mm
06:40 PM 11.4°F-11.4°C -5537.2°C 59% 20.0 mph NW32.2 kmh NW 21.0 mph33.8 kmh 30.38 in1028.8 mb 0.00 in0.0 mm 0.00 in/hr0.0 mm/hr 0.00 in0.0 mm
06:45 PM 11.3°F-11.5°C -5537.2°C 59% 15.0 mph WSW24.1 kmh WSW 25.0 mph40.2 kmh 30.38 in1028.8 mb 0.00 in0.0 mm 0.00 in/hr0.0 mm/hr 0.00 in0.0 mm
06:50 PM 11.3°F-11.5°C -5537.2°C 59% 9.0 mph NW14.5 kmh NW 19.0 mph30.6 kmh 30.38 in1028.8 mb 0.00 in0.0 mm 0.00 in/hr0.0 mm/hr 0.00 in0.0 mm
06:55 PM 11.1°F-11.6°C -5537.2°C 58% 8.0 mph NW12.9 kmh NW 19.0 mph30.6 kmh 30.38 in1028.8 mb 0.00 in0.0 mm 0.00 in/hr0.0 mm/hr 0.00 in0.0 mm
07:00 PM 11.1°F-11.6°C -5537.2°C 59% 13.0 mph WNW20.9 kmh WNW 21.0 mph33.8 kmh 30.38 in1028.8 mb 0.00 in0.0 mm 0.00 in/hr0.0 mm/hr 0.00 in0.0 mm
07:05 PM 11.0°F-11.7°C -5537.2°C 59% 16.0 mph NW25.7 kmh NW 18.0 mph29.0 kmh 30.38 in1028.8 mb 0.00 in0.0 mm 0.00 in/hr0.0 mm/hr 0.00 in0.0 mm
07:10 PM 11.0°F-11.7°C -5537.2°C 60% 11.0 mph WNW17.7 kmh WNW 21.0 mph33.8 kmh 30.39 in1029.1 mb 0.00 in0.0 mm 0.00 in/hr0.0 mm/hr 0.00 in0.0 mm
07:15 PM 11.0°F-11.7°C -5537.2°C 60% 9.0 mph WNW14.5 kmh WNW 17.0 mph27.4 kmh 30.39 in1029.1 mb 0.00 in0.0 mm 0.00 in/hr0.0 mm/hr 0.00 in0.0 mm
07:20 PM 10.9°F-11.7°C 0.1°F-17.7°C 61% 15.0 mph N24.1 kmh N 19.0 mph30.6 kmh 30.39 in1029.1 mb 0.00 in0.0 mm 0.00 in/hr0.0 mm/hr 0.00 in0.0 mm
07:25 PM 10.9°F-11.7°C 0.1°F-17.7°C 61% 17.0 mph NW27.4 kmh NW 17.0 mph27.4 kmh 30.39 in1029.1 mb 0.00 in0.0 mm 0.00 in/hr0.0 mm/hr 0.00 in0.0 mm
07:30 PM 10.8°F-11.8°C -5537.2°C 60% 9.0 mph WNW14.5 kmh WNW 20.0 mph32.2 kmh 30.39 in1029.1 mb 0.00 in0.0 mm 0.00 in/hr0.0 mm/hr 0.00 in0.0 mm
07:35 PM 10.7°F-11.8°C -5537.2°C 60% 10.0 mph NW16.1 kmh NW 20.0 mph32.2 kmh 30.39 in1029.1 mb 0.00 in0.0 mm 0.00 in/hr0.0 mm/hr 0.00 in0.0 mm
07:40 PM 10.6°F-11.9°C -5537.2°C 61% 9.0 mph NW14.5 kmh NW 20.0 mph32.2 kmh 30.39 in1029.1 mb 0.00 in0.0 mm 0.00 in/hr0.0 mm/hr 0.00 in0.0 mm
07:45 PM 10.5°F-11.9°C -5537.2°C 60% 9.0 mph NW14.5 kmh NW 21.0 mph33.8 kmh 30.40 in1029.5 mb 0.00 in0.0 mm 0.00 in/hr0.0 mm/hr 0.00 in0.0 mm
07:50 PM 10.4°F-12.0°C -5537.2°C 60% 15.0 mph NW24.1 kmh NW 20.0 mph32.2 kmh 30.40 in1029.5 mb 0.00 in0.0 mm 0.00 in/hr0.0 mm/hr 0.00 in0.0 mm
07:55 PM 10.3°F-12.1°C -5537.2°C 60% 13.0 mph NW20.9 kmh NW 20.0 mph32.2 kmh 30.40 in1029.5 mb 0.00 in0.0 mm 0.00 in/hr0.0 mm/hr 0.00 in0.0 mm
08:00 PM 10.2°F-12.1°C -5537.2°C 61% 13.0 mph NW20.9 kmh NW 18.0 mph29.0 kmh 30.40 in1029.5 mb 0.00 in0.0 mm 0.00 in/hr0.0 mm/hr 0.00 in0.0 mm
08:05 PM 10.1°F-12.2°C -1.0°F-18.3°C 60% 10.0 mph NNW16.1 kmh NNW 21.0 mph33.8 kmh 30.40 in1029.5 mb 0.00 in0.0 mm 0.00 in/hr0.0 mm/hr 0.00 in0.0 mm
08:10 PM 10.1°F-12.2°C -5537.2°C 61% 10.0 mph NW16.1 kmh NW 21.0 mph33.8 kmh 30.40 in1029.5 mb 0.00 in0.0 mm 0.00 in/hr0.0 mm/hr 0.00 in0.0 mm
08:15 PM 10.1°F-12.2°C -5537.2°C 61% 9.0 mph NW14.5 kmh NW 18.0 mph29.0 kmh 30.39 in1029.1 mb 0.00 in0.0 mm 0.00 in/hr0.0 mm/hr 0.00 in0.0 mm
08:20 PM 10.1°F-12.2°C -5537.2°C 62% 10.0 mph NW16.1 kmh NW 19.0 mph30.6 kmh 30.40 in1029.5 mb 0.00 in0.0 mm 0.00 in/hr0.0 mm/hr 0.00 in0.0 mm
08:25 PM 10.0°F-12.2°C -5537.2°C 62% 8.0 mph NW12.9 kmh NW 20.0 mph32.2 kmh 30.40 in1029.5 mb 0.00 in0.0 mm 0.00 in/hr0.0 mm/hr 0.00 in0.0 mm
08:30 PM 9.9°F-12.3°C -5537.2°C 62% 19.0 mph NW30.6 kmh NW 19.0 mph30.6 kmh 30.40 in1029.5 mb 0.00 in0.0 mm 0.00 in/hr0.0 mm/hr 0.00 in0.0 mm
08:35 PM 9.9°F-12.3°C -5537.2°C 62% 6.0 mph NW9.7 kmh NW 20.0 mph32.2 kmh 30.41 in1029.8 mb 0.00 in0.0 mm 0.00 in/hr0.0 mm/hr 0.00 in0.0 mm
08:40 PM 9.9°F-12.3°C -5537.2°C 62% 12.0 mph W19.3 kmh W 20.0 mph32.2 kmh 30.41 in1029.8 mb 0.00 in0.0 mm 0.00 in/hr0.0 mm/hr 0.00 in0.0 mm
08:45 PM 9.9°F-12.3°C -5537.2°C 62% 12.0 mph NW19.3 kmh NW 19.0 mph30.6 kmh 30.41 in1029.8 mb 0.00 in0.0 mm 0.00 in/hr0.0 mm/hr 0.00 in0.0 mm
08:50 PM 9.9°F-12.3°C -5537.2°C 63% 6.0 mph NW9.7 kmh NW 19.0 mph30.6 kmh 30.41 in1029.8 mb 0.00 in0.0 mm 0.00 in/hr0.0 mm/hr 0.00 in0.0 mm
08:55 PM 9.9°F-12.3°C -5537.2°C 63% 13.0 mph NNW20.9 kmh NNW 16.0 mph25.7 kmh 30.41 in1029.8 mb 0.00 in0.0 mm 0.00 in/hr0.0 mm/hr 0.00 in0.0 mm
09:00 PM 9.9°F-12.3°C 0.1°F-17.7°C 64% 12.0 mph WNW19.3 kmh WNW 16.0 mph25.7 kmh 30.42 in1030.1 mb 0.00 in0.0 mm 0.00 in/hr0.0 mm/hr 0.00 in0.0 mm
09:05 PM 10.0°F-12.2°C 0.2°F-17.7°C 64% 10.0 mph NW16.1 kmh NW 17.0 mph27.4 kmh 30.42 in1030.1 mb 0.00 in0.0 mm 0.00 in/hr0.0 mm/hr 0.00 in0.0 mm
09:10 PM 10.1°F-12.2°C 0.3°F-17.6°C 64% 15.0 mph NW24.1 kmh NW 20.0 mph32.2 kmh 30.42 in1030.1 mb 0.00 in0.0 mm 0.00 in/hr0.0 mm/hr 0.00 in0.0 mm
09:15 PM 10.1°F-12.2°C 0.3°F-17.6°C 64% 12.0 mph NW19.3 kmh NW 22.0 mph35.4 kmh 30.42 in1030.1 mb 0.00 in0.0 mm 0.00 in/hr0.0 mm/hr 0.00 in0.0 mm
09:20 PM 10.2°F-12.1°C 0.4°F-17.6°C 64% 9.0 mph WNW14.5 kmh WNW 19.0 mph30.6 kmh 30.42 in1030.1 mb 0.00 in0.0 mm 0.00 in/hr0.0 mm/hr 0.00 in0.0 mm
09:25 PM 10.2°F-12.1°C 0.4°F-17.6°C 64% 12.0 mph NW19.3 kmh NW 18.0 mph29.0 kmh 30.43 in1030.5 mb 0.00 in0.0 mm 0.00 in/hr0.0 mm/hr 0.00 in0.0 mm
09:30 PM 10.2°F-12.1°C 0.4°F-17.6°C 64% 14.0 mph NW22.5 kmh NW 17.0 mph27.4 kmh 30.43 in1030.5 mb 0.00 in0.0 mm 0.00 in/hr0.0 mm/hr 0.00 in0.0 mm
09:35 PM 10.2°F-12.1°C 0.4°F-17.6°C 64% 13.0 mph NW20.9 kmh NW 16.0 mph25.7 kmh 30.43 in1030.5 mb 0.00 in0.0 mm 0.00 in/hr0.0 mm/hr 0.00 in0.0 mm
09:40 PM 10.3°F-12.1°C 0.9°F-17.3°C 65% 20.0 mph WNW32.2 kmh WNW 22.0 mph35.4 kmh 30.43 in1030.5 mb 0.00 in0.0 mm 0.00 in/hr0.0 mm/hr 0.00 in0.0 mm
09:45 PM 10.9°F-11.7°C 1.4°F-17.0°C 65% 14.0 mph NW22.5 kmh NW 20.0 mph32.2 kmh 30.43 in1030.5 mb 0.00 in0.0 mm 0.00 in/hr0.0 mm/hr 0.00 in0.0 mm
09:50 PM 10.9°F-11.7°C 1.4°F-17.0°C 65% 9.0 mph NW14.5 kmh NW 17.0 mph27.4 kmh 30.43 in1030.5 mb 0.00 in0.0 mm 0.00 in/hr0.0 mm/hr 0.00 in0.0 mm
09:55 PM 10.9°F-11.7°C 1.4°F-17.0°C 65% 14.0 mph W22.5 kmh W 17.0 mph27.4 kmh 30.43 in1030.5 mb 0.00 in0.0 mm 0.00 in/hr0.0 mm/hr 0.00 in0.0 mm
10:00 PM 11.0°F-11.7°C 1.5°F-16.9°C 65% 13.0 mph NW20.9 kmh NW 17.0 mph27.4 kmh 30.43 in1030.5 mb 0.00 in0.0 mm 0.00 in/hr0.0 mm/hr 0.00 in0.0 mm
10:05 PM 11.0°F-11.7°C 1.9°F-16.7°C 66% 6.0 mph NW9.7 kmh NW 17.0 mph27.4 kmh 30.43 in1030.5 mb 0.00 in0.0 mm 0.00 in/hr0.0 mm/hr 0.00 in0.0 mm
10:10 PM 11.1°F-11.6°C 1.9°F-16.7°C 66% 16.0 mph NW25.7 kmh NW 18.0 mph29.0 kmh 30.43 in1030.5 mb 0.00 in0.0 mm 0.00 in/hr0.0 mm/hr 0.00 in0.0 mm
10:15 PM 11.1°F-11.6°C 1.9°F-16.7°C 66% 10.0 mph NW16.1 kmh NW 13.0 mph20.9 kmh 30.44 in1030.8 mb 0.00 in0.0 mm 0.00 in/hr0.0 mm/hr 0.00 in0.0 mm
10:20 PM 11.0°F-11.7°C 1.9°F-16.7°C 66% 16.0 mph NW25.7 kmh NW 18.0 mph29.0 kmh 30.43 in1030.5 mb 0.00 in0.0 mm 0.00 in/hr0.0 mm/hr 0.00 in0.0 mm
10:25 PM 11.0°F-11.7°C 1.9°F-16.7°C 66% 10.0 mph NW16.1 kmh NW 14.0 mph22.5 kmh 30.43 in1030.5 mb 0.00 in0.0 mm 0.00 in/hr0.0 mm/hr 0.00 in0.0 mm
10:30 PM 10.9°F-11.7°C 1.4°F-17.0°C 65% 12.0 mph NW19.3 kmh NW 17.0 mph27.4 kmh 30.43 in1030.5 mb 0.00 in0.0 mm 0.00 in/hr0.0 mm/hr 0.00 in0.0 mm
10:35 PM 10.9°F-11.7°C 1.4°F-17.0°C 65% 14.0 mph WNW22.5 kmh WNW 19.0 mph30.6 kmh 30.43 in1030.5 mb 0.00 in0.0 mm 0.00 in/hr0.0 mm/hr 0.00 in0.0 mm
10:40 PM 10.9°F-11.7°C 1.4°F-17.0°C 65% 11.0 mph NW17.7 kmh NW 17.0 mph27.4 kmh 30.43 in1030.5 mb 0.00 in0.0 mm 0.00 in/hr0.0 mm/hr 0.00 in0.0 mm
10:45 PM 10.9°F-11.7°C 1.1°F-17.2°C 64% 15.0 mph NNW24.1 kmh NNW 17.0 mph27.4 kmh 30.43 in1030.5 mb 0.00 in0.0 mm 0.00 in/hr0.0 mm/hr 0.00 in0.0 mm
10:50 PM 10.9°F-11.7°C 1.4°F-17.0°C 65% 11.0 mph NW17.7 kmh NW 18.0 mph29.0 kmh 30.43 in1030.5 mb 0.00 in0.0 mm 0.00 in/hr0.0 mm/hr 0.00 in0.0 mm
10:55 PM 10.9°F-11.7°C 1.4°F-17.0°C 65% 13.0 mph NW20.9 kmh NW 20.0 mph32.2 kmh 30.43 in1030.5 mb 0.00 in0.0 mm 0.00 in/hr0.0 mm/hr 0.00 in0.0 mm
11:00 PM 10.8°F-11.8°C 1.3°F-17.1°C 65% 12.0 mph NW19.3 kmh NW 21.0 mph33.8 kmh 30.44 in1030.8 mb 0.00 in0.0 mm 0.00 in/hr0.0 mm/hr 0.00 in0.0 mm
11:05 PM 10.9°F-11.7°C 1.4°F-17.0°C 65% 14.0 mph NW22.5 kmh NW 20.0 mph32.2 kmh 30.44 in1030.8 mb 0.00 in0.0 mm 0.00 in/hr0.0 mm/hr 0.00 in0.0 mm
11:10 PM 10.9°F-11.7°C 1.4°F-17.0°C 65% 12.0 mph NW19.3 kmh NW 16.0 mph25.7 kmh 30.44 in1030.8 mb 0.00 in0.0 mm 0.00 in/hr0.0 mm/hr 0.00 in0.0 mm
11:15 PM 10.8°F-11.8°C 1.0°F-17.2°C 64% 6.0 mph NW9.7 kmh NW 17.0 mph27.4 kmh 30.44 in1030.8 mb 0.00 in0.0 mm 0.00 in/hr0.0 mm/hr 0.00 in0.0 mm
11:20 PM 10.9°F-11.7°C 1.1°F-17.2°C 64% 15.0 mph NW24.1 kmh NW 16.0 mph25.7 kmh 30.45 in1031.2 mb 0.00 in0.0 mm 0.00 in/hr0.0 mm/hr 0.00 in0.0 mm
11:30 PM 10.8°F-11.8°C 1.3°F-17.1°C 65% 9.0 mph NW14.5 kmh NW 20.0 mph32.2 kmh 30.45 in1031.2 mb 0.00 in0.0 mm 0.00 in/hr0.0 mm/hr 0.00 in0.0 mm
11:35 PM 10.8°F-11.8°C 1.3°F-17.1°C 65% 10.0 mph NNW16.1 kmh NNW 20.0 mph32.2 kmh 30.45 in1031.2 mb 0.00 in0.0 mm 0.00 in/hr0.0 mm/hr 0.00 in0.0 mm
11:40 PM 10.8°F-11.8°C 1.3°F-17.1°C 65% 12.0 mph NW19.3 kmh NW 20.0 mph32.2 kmh 30.45 in1031.2 mb 0.00 in0.0 mm 0.00 in/hr0.0 mm/hr 0.00 in0.0 mm
11:45 PM 10.8°F-11.8°C 1.0°F-17.2°C 64% 13.0 mph WNW20.9 kmh WNW 16.0 mph25.7 kmh 30.46 in1031.5 mb 0.00 in0.0 mm 0.00 in/hr0.0 mm/hr 0.00 in0.0 mm
11:50 PM 10.8°F-11.8°C 1.0°F-17.2°C 64% 14.0 mph NW22.5 kmh NW 21.0 mph33.8 kmh 30.45 in1031.2 mb 0.00 in0.0 mm 0.00 in/hr0.0 mm/hr 0.00 in0.0 mm
11:55 PM 10.8°F-11.8°C 1.0°F-17.2°C 64% 11.0 mph NW17.7 kmh NW 21.0 mph33.8 kmh 30.45 in1031.2 mb 0.00 in0.0 mm 0.00 in/hr0.0 mm/hr 0.00 in0.0 mm